Time;durP1;ratioP1;P1;durP2;ratioP2;P2;SDS_P1;SDS_P2;PMS_P1;PMS_P2;Temp;Humidity;BMP_temperature;BMP_pressure;BME280_temperature;BME280_humidity;BME280_pressure;Samples;Min_cycle;Max_cycle;Signal;HPM_P1;HPM_P2
2021/12/13 00:02:16;;;;;;;277.10;107.00;;;;;;;-6.26;81.18;99430.59;213681;1324;22700;-75
2021/12/13 00:07:32;;;;;;;267.80;107.10;;;;;;;-6.24;81.46;99435.52;213804;1321;25615;-73
2021/12/13 00:12:39;;;;;;;248.40;96.10;;;;;;;-6.23;81.83;99441.73;213570;1324;23713;-74
2021/12/13 00:17:47;;;;;;;210.60;84.40;;;;;;;-6.22;81.87;99445.52;213593;1321;22749;-73
2021/12/13 00:22:57;;;;;;;193.70;80.30;;;;;;;-6.26;81.77;99441.41;213657;1321;22875;-71
2021/12/13 00:28:14;;;;;;;257.80;103.80;;;;;;;-6.31;81.91;99427.66;213680;1316;22759;-74
2021/12/13 00:33:36;;;;;;;258.60;100.60;;;;;;;-6.32;81.84;99431.83;213666;1322;22759;-72
2021/12/13 00:38:47;;;;;;;236.50;99.10;;;;;;;-6.32;82.01;99429.19;213752;1322;22688;-74
2021/12/13 00:43:55;;;;;;;180.00;77.30;;;;;;;-6.31;82.06;99421.20;213928;1321;22866;-73
2021/12/13 00:49:01;;;;;;;205.30;85.10;;;;;;;-6.28;82.18;99415.04;213900;1316;22825;-75
2021/12/13 00:54:14;;;;;;;186.20;78.80;;;;;;;-6.24;82.33;99424.36;213950;1324;25549;-75
2021/12/13 00:59:25;;;;;;;172.00;72.10;;;;;;;-6.23;82.33;99429.13;213599;1324;26969;-75
2021/12/13 01:04:52;;;;;;;254.10;98.80;;;;;;;-6.28;82.11;99433.06;213645;1323;25678;-74
2021/12/13 01:10:38;;;;;;;245.00;97.30;;;;;;;-6.30;81.94;99437.48;213691;1322;24251;-75
2021/12/13 01:16:00;;;;;;;183.60;78.30;;;;;;;-6.32;81.84;99436.97;213670;1316;22717;-74
2021/12/13 01:21:32;;;;;;;172.80;69.90;;;;;;;-6.32;82.09;99437.20;213565;1322;22709;-74
2021/12/13 01:26:46;;;;;;;151.30;62.20;;;;;;;-6.34;82.26;99427.65;213534;1325;23127;-75
2021/12/13 01:32:09;;;;;;;139.10;59.60;;;;;;;-6.35;82.33;99423.19;213664;1324;25736;-75
2021/12/13 01:37:15;;;;;;;194.30;78.10;;;;;;;-6.32;82.38;99431.67;213786;1318;22996;-74
2021/12/13 01:42:26;;;;;;;219.80;86.70;;;;;;;-6.28;82.27;99435.83;213572;1323;22692;-75
2021/12/13 01:47:36;;;;;;;177.20;78.70;;;;;;;-6.21;82.31;99430.59;213761;1322;22613;-74
2021/12/13 01:52:40;;;;;;;176.10;74.70;;;;;;;-6.15;82.22;99425.67;213807;1323;22802;-75
2021/12/13 01:57:54;;;;;;;162.40;70.60;;;;;;;-6.15;82.04;99429.52;214091;1323;24249;-74
2021/12/13 02:02:57;;;;;;;164.40;68.90;;;;;;;-6.19;82.32;99426.73;213968;1323;25617;-75
2021/12/13 02:08:10;;;;;;;151.80;65.00;;;;;;;-6.23;82.21;99421.75;214077;1324;22596;-75
2021/12/13 02:13:33;;;;;;;177.90;70.60;;;;;;;-6.29;81.90;99415.66;213744;1321;22736;-74
2021/12/13 02:18:41;;;;;;;208.30;81.70;;;;;;;-6.43;81.54;99399.70;213731;1323;22800;-74
2021/12/13 02:23:49;;;;;;;181.90;77.00;;;;;;;-6.50;81.57;99400.50;214043;1320;22860;-75
2021/12/13 02:29:34;;;;;;;187.60;75.30;;;;;;;-6.53;81.81;99401.64;213939;1315;25665;-74
2021/12/13 02:34:50;;;;;;;152.20;65.40;;;;;;;-6.54;81.95;99404.34;213845;1315;22753;-75
2021/12/13 02:40:23;;;;;;;175.00;70.00;;;;;;;-6.62;81.51;99400.91;214013;1320;22843;-75
2021/12/13 02:45:59;;;;;;;157.40;65.20;;;;;;;-6.72;81.73;99411.10;213925;1323;26452;-75
2021/12/13 02:51:24;;;;;;;177.30;71.30;;;;;;;-6.74;81.77;99415.98;214274;1322;25426;-75
2021/12/13 02:56:37;;;;;;;197.50;81.30;;;;;;;-6.75;81.69;99418.67;213997;1323;25611;-75
2021/12/13 03:02:01;;;;;;;214.60;87.50;;;;;;;-6.73;81.74;99413.24;214072;1322;25494;-75
2021/12/13 03:07:39;;;;;;;189.00;82.60;;;;;;;-6.76;81.32;99414.12;214144;1317;22583;-74
2021/12/13 03:12:58;;;;;;;175.40;73.10;;;;;;;-6.82;81.43;99421.58;214235;1320;23815;-74
2021/12/13 03:18:12;;;;;;;170.80;70.60;;;;;;;-6.82;81.57;99420.98;214158;1322;22745;-75
2021/12/13 03:23:42;;;;;;;150.90;64.80;;;;;;;-6.77;81.90;99422.27;214064;1320;24391;-75
2021/12/13 03:29:07;;;;;;;139.70;59.80;;;;;;;-6.77;81.77;99424.67;213641;1324;25255;-74
2021/12/13 03:34:16;;;;;;;174.80;75.30;;;;;;;-6.79;81.72;99421.27;213824;1319;26638;-74
2021/12/13 03:39:26;;;;;;;178.10;73.10;;;;;;;-6.76;81.82;99426.64;214020;1315;22815;-75
2021/12/13 03:44:46;;;;;;;159.40;63.80;;;;;;;-6.65;82.07;99427.52;213860;1320;22890;-75
2021/12/13 03:50:25;;;;;;;142.30;59.40;;;;;;;-6.52;82.14;99415.95;214021;1323;25770;-74
2021/12/13 03:55:30;;;;;;;138.20;54.10;;;;;;;-6.42;82.10;99419.41;213878;1315;23312;-74
2021/12/13 04:00:39;;;;;;;171.00;71.20;;;;;;;-6.38;81.86;99425.59;213770;1323;22673;-74
2021/12/13 04:05:48;;;;;;;156.70;71.10;;;;;;;-6.39;81.44;99437.14;213871;1320;25227;-73
2021/12/13 04:10:54;;;;;;;189.40;81.60;;;;;;;-6.38;81.17;99439.02;213960;1320;22799;-74
2021/12/13 04:16:47;;;;;;;155.20;68.20;;;;;;;-6.34;81.27;99442.55;213572;1322;25672;-75
2021/12/13 04:22:12;;;;;;;152.00;63.80;;;;;;;-6.26;81.24;99443.34;213708;1318;22909;-76
2021/12/13 04:27:20;;;;;;;174.10;74.70;;;;;;;-6.19;81.45;99440.11;214057;1321;25571;-75
2021/12/13 04:32:35;;;;;;;141.20;59.90;;;;;;;-5.98;81.89;99436.83;213914;1322;24993;-74
2021/12/13 04:37:43;;;;;;;130.90;59.30;;;;;;;-5.73;82.08;99438.48;213803;1319;25519;-74
2021/12/13 04:43:18;;;;;;;142.80;60.30;;;;;;;-5.50;82.24;99435.51;214371;1325;22704;-74
2021/12/13 04:48:34;;;;;;;152.00;65.80;;;;;;;-5.26;82.18;99431.31;213681;1324;22717;-76
2021/12/13 04:53:58;;;;;;;148.00;63.20;;;;;;;-4.99;82.40;99428.23;213712;1319;22694;-74
2021/12/13 04:59:13;;;;;;;125.10;55.90;;;;;;;-4.76;82.14;99422.28;213593;1325;25259;-75
2021/12/13 05:04:33;;;;;;;143.50;62.00;;;;;;;-4.62;81.78;99424.02;213820;1316;22903;-75
2021/12/13 05:09:36;;;;;;;155.20;69.60;;;;;;;-4.55;81.55;99424.83;214149;1319;23499;-75
2021/12/13 05:14:44;;;;;;;181.10;77.40;;;;;;;-4.55;81.05;99435.94;214213;1318;24219;-75
2021/12/13 05:20:14;;;;;;;142.30;68.80;;;;;;;-4.56;80.85;99436.88;213797;1319;25557;-75
2021/12/13 05:25:35;;;;;;;124.90;59.20;;;;;;;-4.62;81.02;99443.74;213548;1322;22778;-75
2021/12/13 05:30:49;;;;;;;133.90;60.70;;;;;;;-4.53;81.53;99451.33;213618;1323;23392;-74
2021/12/13 05:35:56;;;;;;;149.10;70.90;;;;;;;-4.44;81.52;99451.83;213630;1317;419457;-76
2021/12/13 05:41:08;;;;;;;148.10;69.00;;;;;;;-4.31;81.50;99457.89;214173;1315;22615;-75
2021/12/13 05:46:25;;;;;;;136.20;61.10;;;;;;;-4.16;81.56;99455.64;214118;1324;24251;-74
2021/12/13 05:51:39;;;;;;;138.30;65.10;;;;;;;-4.00;81.63;99459.99;213895;1323;24938;-75
2021/12/13 05:56:59;;;;;;;142.30;66.10;;;;;;;-3.88;81.81;99468.05;213830;1323;22573;-75
2021/12/13 06:02:11;;;;;;;155.10;70.30;;;;;;;-3.74;81.69;99470.37;213611;1323;23110;-74
2021/12/13 06:07:22;;;;;;;162.40;68.50;;;;;;;-3.57;81.84;99464.41;213687;1316;24351;-75
2021/12/13 06:12:51;;;;;;;137.20;60.70;;;;;;;-3.41;81.94;99460.98;213694;1322;24347;-75
2021/12/13 06:18:07;;;;;;;120.60;56.60;;;;;;;-3.37;81.18;99465.94;214077;1322;22618;-73
2021/12/13 06:23:31;;;;;;;122.30;54.30;;;;;;;-3.49;80.90;99470.52;214039;1320;24300;-75
2021/12/13 06:28:40;;;;;;;130.20;55.40;;;;;;;-3.59;80.79;99471.88;213808;1320;25695;-75
2021/12/13 06:33:57;;;;;;;145.90;68.30;;;;;;;-3.69;80.83;99471.87;214144;1323;23578;-74
2021/12/13 06:39:09;;;;;;;207.70;108.60;;;;;;;-3.74;81.06;99481.23;213863;1323;24257;-74
2021/12/13 06:44:41;;;;;;;164.30;82.20;;;;;;;-3.72;81.24;99489.74;214009;1316;24006;-75
2021/12/13 06:49:57;;;;;;;118.50;54.20;;;;;;;-3.54;81.86;99497.23;214158;1316;24862;-75
2021/12/13 06:55:44;;;;;;;;;;;;;;;;;;;;;
2021/12/13 07:02:16;;;;;;;116.20;54.90;;;;;;;-3.19;82.08;99504.92;214819;1316;22626;-74
2021/12/13 07:09:04;;;;;;;;;;;;;;;;;;;;;
2021/12/13 07:15:06;;;;;;;;;;;;;;;;;;;;;
2021/12/13 07:20:52;;;;;;;116.50;54.80;;;;;;;-2.77;81.20;99510.84;214712;1315;24343;-75
2021/12/13 07:25:56;;;;;;;115.10;51.60;;;;;;;-2.68;81.19;99513.21;214386;1315;22629;-75
2021/12/13 07:31:01;;;;;;;117.20;51.50;;;;;;;-2.58;81.22;99521.96;214027;1315;22567;-74
2021/12/13 07:36:54;;;;;;;122.20;55.80;;;;;;;-2.49;81.20;99525.89;213925;1315;22620;-75
2021/12/13 07:42:06;;;;;;;123.20;55.50;;;;;;;-2.39;80.99;99536.39;213869;1316;22612;-74
2021/12/13 07:47:23;;;;;;;113.50;53.40;;;;;;;-2.25;80.97;99536.08;214258;1315;25243;-74
2021/12/13 07:52:46;;;;;;;129.70;56.70;;;;;;;-2.18;80.89;99539.56;214179;1315;22604;-74
2021/12/13 07:58:07;;;;;;;128.00;57.40;;;;;;;-2.01;81.07;99540.70;214123;1315;23705;-74
2021/12/13 08:03:26;;;;;;;139.40;62.30;;;;;;;-1.88;80.86;99547.73;214130;1315;22664;-74
2021/12/13 08:09:11;;;;;;;133.40;60.00;;;;;;;-1.65;81.03;99558.73;213954;1318;22597;-74
2021/12/13 08:14:35;;;;;;;116.80;53.50;;;;;;;-1.35;81.43;99562.10;214485;1315;22733;-72
2021/12/13 08:20:07;;;;;;;111.90;49.30;;;;;;;-1.05;81.25;99563.73;214129;1319;23055;-74
2021/12/13 08:25:29;;;;;;;123.20;57.30;;;;;;;-0.92;80.44;99567.92;214044;1316;24468;-74
2021/12/13 08:31:13;;;;;;;120.20;55.90;;;;;;;-0.74;80.40;99576.36;213702;1318;23070;-75
2021/12/13 08:36:38;;;;;;;183.60;85.20;;;;;;;-0.61;79.80;99594.25;213944;1316;25744;-75
2021/12/13 08:42:13;;;;;;;210.10;98.60;;;;;;;-0.73;79.10;99605.66;213690;1316;22695;-75
2021/12/13 08:47:24;;;;;;;200.60;95.00;;;;;;;-0.84;79.08;99611.45;214034;1318;22597;-74
2021/12/13 08:52:43;;;;;;;208.20;95.10;;;;;;;-0.89;79.04;99613.73;214069;1316;22573;-73
2021/12/13 08:58:11;;;;;;;199.80;95.30;;;;;;;-0.89;79.13;99612.67;213765;1316;25471;-72
2021/12/13 09:03:25;;;;;;;155.70;74.40;;;;;;;-0.80;79.54;99615.71;213620;1316;25495;-72
2021/12/13 09:08:34;;;;;;;146.50;67.10;;;;;;;-0.66;79.60;99612.16;213959;1316;24342;-71
2021/12/13 09:14:04;;;;;;;151.40;76.20;;;;;;;-0.55;79.49;99602.55;213872;1316;22809;-73
2021/12/13 09:19:38;;;;;;;147.60;69.70;;;;;;;-0.35;79.64;99602.10;213317;1318;22699;-72
2021/12/13 09:25:06;;;;;;;136.80;69.20;;;;;;;-0.09;79.52;99597.13;213854;1316;25563;-71
2021/12/13 09:30:28;;;;;;;133.30;70.50;;;;;;;0.18;80.02;99591.31;213813;1316;22583;-74
2021/12/13 09:35:37;;;;;;;143.40;75.00;;;;;;;0.48;79.89;99584.24;214208;1316;22637;-72
2021/12/13 09:40:47;;;;;;;126.00;61.30;;;;;;;0.77;79.96;99584.61;214094;1316;22611;-73
2021/12/13 09:45:54;;;;;;;119.10;57.10;;;;;;;0.90;78.79;99574.66;214003;1316;24132;-73
2021/12/13 09:51:03;;;;;;;113.50;56.80;;;;;;;0.81;77.73;99574.18;213867;1316;22622;-74
2021/12/13 09:56:21;;;;;;;121.30;61.30;;;;;;;0.77;77.94;99578.48;213837;1316;25556;-74
2021/12/13 10:01:35;;;;;;;129.70;61.90;;;;;;;0.67;77.55;99581.86;213951;1316;22764;-73
2021/12/13 10:06:45;;;;;;;123.10;62.10;;;;;;;0.63;77.49;99585.84;213850;1317;22581;-72
2021/12/13 10:12:28;;;;;;;136.60;70.90;;;;;;;0.71;78.08;99587.95;214134;1316;22591;-73
2021/12/13 10:17:51;;;;;;;133.80;64.20;;;;;;;0.76;77.75;99580.57;213833;1315;25455;-72
2021/12/13 10:23:06;;;;;;;145.80;68.60;;;;;;;0.74;77.70;99576.66;213715;1316;22628;-72
2021/12/13 10:28:33;;;;;;;130.40;65.20;;;;;;;0.85;77.79;99577.42;214010;1316;24446;-73
2021/12/13 10:33:42;;;;;;;129.80;63.30;;;;;;;0.92;77.49;99572.63;213923;1316;26561;-74
2021/12/13 10:39:05;;;;;;;137.00;66.10;;;;;;;0.88;77.16;99571.98;213893;1316;25377;-74
2021/12/13 10:45:10;;;;;;;137.30;71.20;;;;;;;0.95;77.35;99573.00;213978;1317;22603;-74
2021/12/13 10:50:25;;;;;;;124.90;65.90;;;;;;;1.12;77.58;99571.86;214416;1316;22823;-74
2021/12/13 10:55:34;;;;;;;121.60;60.40;;;;;;;1.34;77.83;99574.65;213836;1316;22565;-74
2021/12/13 11:00:47;;;;;;;112.60;59.30;;;;;;;1.49;77.54;99576.19;213937;1315;22596;-74
2021/12/13 11:06:02;;;;;;;115.50;61.60;;;;;;;1.71;77.91;99581.21;213723;1318;22586;-74
2021/12/13 11:11:34;;;;;;;122.20;65.00;;;;;;;2.01;78.55;99578.33;213888;1316;22679;-74
2021/12/13 11:16:47;;;;;;;;;;;;;;;2.28;78.05;99576.51;213788;1323;25872;-73
2021/12/13 11:21:55;;;;;;;131.90;67.30;;;;;;;2.23;76.89;99576.33;213446;1321;24318;-72
2021/12/13 11:27:13;;;;;;;140.40;73.00;;;;;;;2.07;76.57;99574.84;214053;1316;22978;-73
2021/12/13 11:32:57;;;;;;;136.40;68.60;;;;;;;1.87;76.87;99579.55;213624;1318;22596;-74
2021/12/13 11:38:48;;;;;;;147.80;75.60;;;;;;;1.74;77.08;99580.27;213914;1316;23647;-74
2021/12/13 11:44:18;;;;;;;146.00;77.10;;;;;;;1.73;77.41;99583.64;213767;1317;22711;-73
2021/12/13 11:50:05;;;;;;;139.50;74.60;;;;;;;1.76;77.75;99575.46;213877;1309;24270;-73
2021/12/13 11:56:10;;;;;;;147.60;77.00;;;;;;;1.70;77.55;99575.40;213969;1321;22581;-73
2021/12/13 12:01:40;;;;;;;164.90;87.20;;;;;;;1.62;77.64;99568.29;213930;1316;22765;-73
2021/12/13 12:08:00;;;;;;;150.50;80.50;;;;;;;1.64;78.14;99571.45;214148;1316;25335;-71
2021/12/13 12:13:28;;;;;;;151.70;74.90;;;;;;;1.61;78.32;99572.00;212975;1325;25393;-72
2021/12/13 12:18:37;;;;;;;129.80;69.30;;;;;;;1.57;78.28;99571.93;213881;1318;22571;-74
2021/12/13 12:23:51;;;;;;;138.10;74.40;;;;;;;1.51;78.26;99566.51;213847;1318;24285;-74
2021/12/13 12:29:08;;;;;;;131.50;67.50;;;;;;;1.42;78.42;99564.91;213839;1321;23017;-74
2021/12/13 12:35:12;;;;;;;135.20;69.90;;;;;;;1.31;78.69;99563.41;213704;1318;22617;-73
2021/12/13 12:40:33;;;;;;;;;;;;;;;1.19;79.09;99560.88;213726;1316;24151;-73
2021/12/13 12:46:09;;;;;;;134.60;70.30;;;;;;;1.29;79.60;99565.48;213804;1318;22578;-73
2021/12/13 12:51:35;;;;;;;157.20;80.90;;;;;;;1.38;79.87;99567.53;213685;1316;25402;-74
2021/12/13 12:57:04;;;;;;;156.40;84.90;;;;;;;1.41;79.47;99570.32;213668;1323;22526;-74
2021/12/13 13:02:16;;;;;;;151.40;81.50;;;;;;;1.49;79.76;99573.02;213622;1319;22627;-75
2021/12/13 13:07:52;;;;;;;159.20;84.70;;;;;;;1.57;79.61;99575.95;213815;1324;22621;-76
2021/12/13 13:13:30;;;;;;;141.50;76.70;;;;;;;1.52;79.97;99582.50;214040;1318;23301;-75
2021/12/13 13:18:56;;;;;;;;;;;;;;;;;;;;;
2021/12/13 13:24:53;;;;;;;136.60;68.80;;;;;;;1.54;80.47;99583.27;213850;1325;22650;-73
2021/12/13 13:30:29;;;;;;;138.00;70.00;;;;;;;1.60;80.12;99583.95;213816;1318;24455;-75
2021/12/13 13:36:11;;;;;;;134.20;68.40;;;;;;;1.61;80.37;99595.48;209913;1323;5470435;-75
2021/12/13 13:41:59;;;;;;;135.50;69.50;;;;;;;1.57;80.07;99597.20;213887;1322;22726;-74
2021/12/13 13:47:23;;;;;;;136.90;62.30;;;;;;;1.47;79.99;99599.06;213755;1325;22628;-75
2021/12/13 13:52:43;;;;;;;127.60;68.00;;;;;;;1.38;80.25;99599.02;213791;1323;24287;-75
2021/12/13 13:58:09;;;;;;;142.70;69.30;;;;;;;1.38;80.73;99602.05;213927;1316;24401;-75
2021/12/13 14:04:07;;;;;;;154.70;73.50;;;;;;;1.37;80.55;99604.54;213602;1319;22722;-74
2021/12/13 14:09:35;;;;;;;160.10;71.70;;;;;;;1.42;80.95;99605.33;214041;1316;25360;-74
2021/12/13 14:15:27;;;;;;;149.10;70.00;;;;;;;1.48;81.14;99612.50;214089;1316;25408;-75
2021/12/13 14:21:10;;;;;;;145.70;69.00;;;;;;;1.45;81.01;99612.44;214141;1316;23074;-75
2021/12/13 14:26:17;;;;;;;161.70;72.00;;;;;;;1.41;81.02;99613.48;214665;1322;26492;-74
2021/12/13 14:31:36;;;;;;;157.60;72.20;;;;;;;1.34;81.02;99614.57;214360;1321;22628;-74
2021/12/13 14:37:24;;;;;;;;;;;;;;;;;;;;;
2021/12/13 14:43:03;;;;;;;136.20;63.30;;;;;;;1.17;81.08;99610.64;214268;1316;24246;-74
2021/12/13 14:48:38;;;;;;;144.30;66.20;;;;;;;1.11;81.33;99615.27;214345;1316;24280;-74
2021/12/13 14:54:58;;;;;;;152.90;73.10;;;;;;;1.03;81.60;99626.36;214087;1316;22586;-74
2021/12/13 15:01:02;;;;;;;166.00;73.60;;;;;;;1.02;81.89;99636.55;214303;1316;22625;-75
2021/12/13 15:06:24;;;;;;;152.60;74.90;;;;;;;1.03;81.95;99640.45;214238;1315;23964;-75
2021/12/13 15:11:38;;;;;;;149.70;73.40;;;;;;;1.07;82.37;99643.45;213942;1316;22823;-75
2021/12/13 15:16:48;;;;;;;153.40;71.00;;;;;;;1.11;82.37;99650.76;213975;1316;22654;-74
2021/12/13 15:22:01;;;;;;;179.60;84.40;;;;;;;1.07;82.28;99651.36;213978;1316;22619;-74
2021/12/13 15:27:27;;;;;;;177.60;85.60;;;;;;;1.08;82.38;99651.85;213925;1315;26544;-75
2021/12/13 15:32:36;;;;;;;181.80;87.40;;;;;;;1.11;82.52;99658.42;213881;1316;24414;-74
2021/12/13 15:37:49;;;;;;;164.40;83.70;;;;;;;1.08;82.33;99663.23;213876;1316;24794;-75
2021/12/13 15:43:13;;;;;;;169.40;81.20;;;;;;;1.02;82.48;99663.06;214291;1315;22804;-74
2021/12/13 15:55:15;;;;;;;;;;;;;;;;;;;;;
2021/12/13 16:01:19;;;;;;;186.00;91.70;;;;;;;0.93;82.80;99661.23;214222;1316;22595;-74
2021/12/13 16:06:52;;;;;;;189.30;90.40;;;;;;;0.96;82.86;99664.85;213686;1316;22616;-75
2021/12/13 16:12:45;;;;;;;182.40;85.90;;;;;;;1.00;83.18;99662.34;213846;1322;23094;-76
2021/12/13 16:18:52;;;;;;;;;;;;;;;;;;;;;
2021/12/13 16:24:43;;;;;;;251.30;112.60;;;;;;;0.95;82.95;99678.50;213819;1324;25396;-74
2021/12/13 16:30:46;;;;;;;;;;;;;;;;;;;;;
2021/12/13 16:37:08;;;;;;;229.20;106.80;;;;;;;1.07;83.53;99680.96;214091;1323;24258;-73
2021/12/13 16:42:42;;;;;;;247.00;116.60;;;;;;;1.02;83.29;99687.58;213585;1324;22763;-75
2021/12/13 16:47:54;;;;;;;245.20;112.00;;;;;;;1.01;83.46;99696.88;213888;1323;22742;-76
2021/12/13 16:53:26;;;;;;;252.80;110.70;;;;;;;1.08;83.57;99698.95;213896;1323;25450;-75
2021/12/13 16:58:39;;;;;;;235.70;111.50;;;;;;;1.13;83.67;99706.13;214024;1325;22740;-74
2021/12/13 17:04:21;;;;;;;242.80;106.90;;;;;;;1.13;83.62;99709.05;213882;1323;24261;-75
2021/12/13 17:10:41;;;;;;;260.70;115.00;;;;;;;1.06;83.51;99714.33;213955;1323;23811;-76
2021/12/13 17:16:02;;;;;;;263.60;117.90;;;;;;;0.98;83.44;99718.88;214060;1323;25394;-75
2021/12/13 17:22:18;;;;;;;;;;;;;;;;;;;;;
2021/12/13 17:27:35;;;;;;;228.00;109.40;;;;;;;1.07;84.08;99726.23;213654;1324;22589;-74
2021/12/13 17:33:18;;;;;;;214.10;100.50;;;;;;;1.07;84.17;99728.25;213831;1323;24442;-75
2021/12/13 17:38:28;;;;;;;208.20;97.40;;;;;;;1.05;84.23;99725.86;213731;1325;22687;-75
2021/12/13 17:44:23;;;;;;;232.90;101.70;;;;;;;1.05;84.13;99725.55;213800;1320;24324;-76
2021/12/13 17:50:43;;;;;;;215.80;98.80;;;;;;;1.11;84.31;99726.27;213875;1323;22581;-76
2021/12/13 17:56:43;;;;;;;238.70;109.70;;;;;;;1.08;83.70;99726.76;213607;1322;22613;-76
2021/12/13 18:02:13;;;;;;;220.20;101.30;;;;;;;1.01;83.95;99725.13;213468;1325;25480;-75
2021/12/13 18:07:43;;;;;;;196.60;94.70;;;;;;;0.94;83.86;99726.74;213780;1323;23823;-75
2021/12/13 18:14:00;;;;;;;;;;;;;;;;;;;;;
2021/12/13 18:19:44;;;;;;;283.10;124.30;;;;;;;0.85;84.30;99726.34;214113;1323;22590;-75
2021/12/13 18:25:52;;;;;;;;;;;;;;;;;;;;;
2021/12/13 18:31:46;;;;;;;;;;;;;;;;;;;;;
2021/12/13 18:37:37;;;;;;;201.60;93.90;;;;;;;0.98;84.38;99730.13;213674;1323;24339;-75
2021/12/13 18:44:50;;;;;;;181.70;86.80;;;;;;;0.95;84.52;99731.30;213783;1322;22807;-75
2021/12/13 18:50:15;;;;;;;227.60;97.40;;;;;;;0.92;84.62;99728.33;213648;1323;24171;-76
2021/12/13 18:55:43;;;;;;;234.00;103.00;;;;;;;0.88;84.41;99724.48;213552;1320;22666;-73
2021/12/13 19:01:20;;;;;;;239.50;107.40;;;;;;;0.85;84.65;99726.91;213748;1323;22593;-74
2021/12/13 19:08:13;;;;;;;252.80;113.80;;;;;;;0.85;84.84;99729.59;213884;1322;24296;-75
2021/12/13 19:14:39;;;;;;;;;;;;;;;;;;;;;
2021/12/13 19:20:55;;;;;;;267.60;116.90;;;;;;;0.83;85.04;99732.65;213603;1323;22613;-76
2021/12/13 19:27:10;;;;;;;265.20;118.30;;;;;;;0.79;85.19;99737.08;213923;1324;25174;-75
2021/12/13 19:33:01;;;;;;;247.30;108.30;;;;;;;0.80;85.19;99737.48;214111;1323;24901;-75
2021/12/13 19:38:48;;;;;;;207.30;96.10;;;;;;;0.86;85.28;99743.70;214032;1323;24442;-76
2021/12/13 19:44:51;;;;;;;216.50;95.70;;;;;;;0.88;85.37;99739.36;213685;1321;22590;-75
2021/12/13 19:51:33;;;;;;;215.10;91.20;;;;;;;0.87;85.68;99739.73;213526;1319;22753;-75
2021/12/13 19:58:05;;;;;;;;;;;;;;;;;;;;;
2021/12/13 20:04:37;;;;;;;;;;;;;;;;;;;;;
2021/12/13 20:10:40;;;;;;;183.30;83.00;;;;;;;0.98;85.60;99747.90;213920;1323;22659;-75
2021/12/13 20:16:56;;;;;;;;;;;;;;;;;;;;;
2021/12/13 20:23:40;;;;;;;;;;;;;;;;;;;;;
2021/12/13 20:30:36;;;;;;;;;;;;;;;;;;;;;
2021/12/13 20:36:42;;;;;;;167.70;74.80;;;;;;;1.23;85.62;99742.92;213509;1327;22734;-75
2021/12/13 20:43:11;;;;;;;178.10;74.90;;;;;;;1.25;85.74;99743.05;213189;1327;25425;-75
2021/12/13 20:49:36;;;;;;;183.00;78.60;;;;;;;1.22;85.48;99740.24;213885;1324;24446;-76
2021/12/13 20:55:59;;;;;;;219.50;96.30;;;;;;;1.20;85.28;99731.30;213246;1326;25330;-74
2021/12/13 21:02:13;;;;;;;198.30;89.90;;;;;;;1.14;85.15;99727.86;213227;1326;22619;-76
2021/12/13 21:08:46;;;;;;;;;;;;;;;;;;;;;
2021/12/13 21:14:32;;;;;;;238.50;97.90;;;;;;;0.99;85.34;99732.68;212861;1329;25555;-75
2021/12/13 21:21:30;;;;;;;249.20;100.10;;;;;;;0.94;85.50;99740.32;213475;1318;22609;-75
2021/12/13 21:27:32;;;;;;;220.90;95.80;;;;;;;0.96;85.48;99745.35;213373;1326;22639;-76
2021/12/13 21:33:43;;;;;;;202.50;92.20;;;;;;;0.97;85.73;99745.91;213556;1325;22524;-75
2021/12/13 21:40:26;;;;;;;196.80;80.20;;;;;;;0.93;85.53;99743.73;208897;1329;22597;-74
2021/12/13 21:47:05;;;;;;;200.20;84.00;;;;;;;0.89;85.71;99746.64;213007;1329;25436;-75
2021/12/13 21:53:39;;;;;;;178.70;77.60;;;;;;;0.99;86.02;99744.04;212957;1329;24363;-76
2021/12/13 21:59:32;;;;;;;;;;;;;;;;;;;;;
2021/12/13 22:06:08;;;;;;;159.20;73.60;;;;;;;1.14;86.33;99737.20;213129;1330;25249;-75
2021/12/13 22:12:32;;;;;;;;;;;;;;;;;;;;;
2021/12/13 22:18:50;;;;;;;;;;;;;;;;;;;;;
2021/12/13 22:25:07;;;;;;;;;;;;;;;;;;;;;
2021/12/13 22:31:30;;;;;;;;;;;;;;;;;;;;;
2021/12/13 22:37:41;;;;;;;;;;;;;;;;;;;;;
2021/12/13 22:44:10;;;;;;;166.80;69.60;;;;;;;1.06;85.94;99745.79;213447;1327;22654;-76
2021/12/13 22:57:35;;;;;;;123.40;57.30;;;;;;;1.22;85.84;99747.51;213502;1324;25556;-76
2021/12/13 23:04:34;;;;;;;;;;;;;;;;;;;;;
2021/12/13 23:11:08;;;;;;;148.20;63.60;;;;;;;1.36;86.44;99742.11;213751;1322;22598;-76
2021/12/13 23:17:36;;;;;;;;;;;;;;;;;;;;;
2021/12/13 23:23:38;;;;;;;145.50;65.60;;;;;;;1.42;85.88;99726.21;213711;1323;24232;-76
2021/12/13 23:30:02;;;;;;;;;;;;;;;;;;;;;
2021/12/13 23:36:55;;;;;;;;;;;;;;;;;;;;;
2021/12/13 23:49:39;;;;;;;;;;;;;;;;;;;;;
2021/12/13 23:56:39;;;;;;;;;;;;;;;;;;;;;
